메인 페이지
METAR-TAF:

METAR-TAF

공항 :

코모도로 아르투로 메리노 베니테스 국제공항

산티아고, 칠레

위도: 33-23S, 경도: 070-47W, 고도: 475m

현재 날씨관측

예보는 57분 전, 15:00시(UTC)에 발표되었습니다.
여러 방향의 바람 2kt
온도 13°C
습도 67%
기압 1019 hPa
시정: 6000m

METAR: SCEL 301500Z VRB02KT 6000 NSC 13/07 Q1019 NOSIG

시각: 11:57 (15:57 UTC)

예보

예보는 5 시간 57분 전, 10:00시(UTC)에 발표되었습니다.
예보 대상 시간: 30일 12시부터 31일 12시까지 (UTC)
남남동5kt
시정: 6000m
전환 중
30일 16시부터 30일 18시까지 (UTC)
남남서10kt
시정 10km 이상
1500m 미만 상공 구름 및 적란운 없음
전환 중
30일 21시부터 30일 23시까지 (UTC)
남남동5kt
전환 중
31일 02시부터 31일 04시까지 (UTC)
시정: 6000m

TAF: SCEL 301000Z 3012/3112 15005KT 6000 NSC TX21/3019Z TN08/3109Z BECMG 3016/3018 20010KT CAVOK BECMG 3021/3023 15005KT BECMG 3102/3104 6000

4,000개 이상의 공항 관측 자료 및 예보 (METAR 및 TAF 보고).

지도상에서 검색 가능한 기상관측소가 노란 점과 빨간 점으로 표시되어 있습니다.

기상관측소 명을 보려면 표시 위로 마우스를 이동하세요.

날씨 관측과 예보를 보려면 클릭하세요.

지도 변경 : 확대하려면 엑스 표시가 있는 녹색 버튼, 축소하려면 빼기 표시가 있는 녹색 버튼, 다음 페이지의 지도를 보려면 녹색 화살표를 클릭하세요.


METAR-TAF: